Time;durP1;ratioP1;P1;durP2;ratioP2;P2;SDS_P1;SDS_P2;PMS_P1;PMS_P2;Temp;Humidity;BMP_temperature;BMP_pressure;BME280_temperature;BME280_humidity;BME280_pressure;Samples;Min_cycle;Max_cycle;Signal;HPM_P1;HPM_P2
2022/08/04 00:00:14;;;;;;;;;;;;;;;;;;1033834;28;19917;-75
2022/08/04 00:00:44;;;;;;;;;;;;;;;;;;1033658;28;19920;-75
2022/08/04 00:01:15;;;;;;;;;;;;;;;;;;1033679;28;19949;-75
2022/08/04 00:01:45;;;;;;;;;;;;;;;;;;1033787;28;19953;-75
2022/08/04 00:02:16;;;;;;;;;;;;;;;;;;1035872;28;20294;-74
2022/08/04 00:02:46;;;;;;;;;;;;;;;;;;1036371;28;20289;-74
2022/08/04 00:03:16;;;;;;;;;;;;;;;;;;1031917;28;19921;-75
2022/08/04 00:03:46;;;;;;;;;;;;;;;;;;1035811;28;19924;-74
2022/08/04 00:04:17;;;;;;;;;;;;;;;;;;1036120;28;19914;-75
2022/08/04 00:04:47;;;;;;;;;;;;;;;;;;1035145;28;20451;-75
2022/08/04 00:05:17;;;;;;;;;;;;;;;;;;1035826;28;19914;-75
2022/08/04 00:05:48;;;;;;;;;;;;;;;;;;1035906;28;19953;-75
2022/08/04 00:06:18;;;;;;;;;;;;;;;;;;1035873;28;19944;-75
2022/08/04 00:06:48;;;;;;;;;;;;;;;;;;1035882;28;20016;-74
2022/08/04 00:07:18;;;;;;;;;;;;;;;;;;1036330;28;19913;-75
2022/08/04 00:07:49;;;;;;;;;;;;;;;;;;1036274;28;19917;-75
2022/08/04 00:08:19;;;;;;;;;;;;;;;;;;1036551;28;19936;-75
2022/08/04 00:08:49;;;;;;;;;;;;;;;;;;1036843;28;19914;-76
2022/08/04 00:09:20;;;;;;;;;;;;;;;;;;1036214;28;19956;-75
2022/08/04 00:09:50;;;;;;;;;;;;;;;;;;1035925;28;20419;-75
2022/08/04 00:10:20;;;;;;;;;;;;;;;;;;1035852;28;20405;-75
2022/08/04 00:10:51;;;;;;;;;;;;;;;;;;1035944;28;20013;-75
2022/08/04 00:11:21;;;;;;;;;;;;;;;;;;1036347;28;19945;-75
2022/08/04 00:11:51;;;;;;;;;;;;;;;;;;1036112;28;19913;-75
2022/08/04 00:12:21;;;;;;;;;;;;;;;;;;1035795;28;19913;-74
2022/08/04 00:12:52;;;;;;;;;;;;;;;;;;1035950;28;20341;-76
2022/08/04 00:13:22;;;;;;;;;;;;;;;;;;1036858;28;19913;-75
2022/08/04 00:13:53;;;;;;;;;;;;;;;;;;1035808;28;19951;-75
2022/08/04 00:14:23;;;;;;;;;;;;;;;;;;1035119;28;19913;-75
2022/08/04 00:14:54;;;;;;;;;;;;;;;;;;1036213;28;19914;-75
2022/08/04 00:15:24;;;;;;;;;;;;;;;;;;1036268;28;19913;-75
2022/08/04 00:15:54;;;;;;;;;;;;;;;;;;1036183;28;19921;-75
2022/08/04 00:16:25;;;;;;;;;;;;;;;;;;1036013;28;20294;-75
2022/08/04 00:16:55;;;;;;;;;;;;;;;;;;1036299;28;20016;-75
2022/08/04 00:17:25;;;;;;;;;;;;;;;;;;1036175;28;19917;-74
2022/08/04 00:17:55;;;;;;;;;;;;;;;;;;1036191;28;19920;-75
2022/08/04 00:18:26;;;;;;;;;;;;;;;;;;1036121;28;19913;-74
2022/08/04 00:18:56;;;;;;;;;;;;;;;;;;1036348;28;20324;-75
2022/08/04 00:19:27;;;;;;;;;;;;;;;;;;1036462;28;19913;-75
2022/08/04 00:19:57;;;;;;;;;;;;;;;;;;1035140;28;20000;-76
2022/08/04 00:20:27;;;;;;;;;;;;;;;;;;1035635;28;19968;-76
2022/08/04 00:20:58;;;;;;;;;;;;;;;;;;1035995;28;19948;-75
2022/08/04 00:21:28;;;;;;;;;;;;;;;;;;1035672;28;19972;-75
2022/08/04 00:21:58;;;;;;;;;;;;;;;;;;1034001;28;20341;-75
2022/08/04 00:22:29;;;;;;;;;;;;;;;;;;1033755;28;19913;-75
2022/08/04 00:22:59;;;;;;;;;;;;;;;;;;1033754;28;19918;-75
2022/08/04 00:23:29;;;;;;;;;;;;;;;;;;1035838;28;19914;-75
2022/08/04 00:24:00;;;;;;;;;;;;;;;;;;1035860;28;19920;-75
2022/08/04 00:24:30;;;;;;;;;;;;;;;;;;1036772;28;20416;-75
2022/08/04 00:25:01;;;;;;;;;;;;;;;;;;1035958;28;19913;-75
2022/08/04 00:25:31;;;;;;;;;;;;;;;;;;1035772;28;19920;-75
2022/08/04 00:26:01;;;;;;;;;;;;;;;;;;1033965;28;19914;-75
2022/08/04 00:26:32;;;;;;;;;;;;;;;;;;1033877;28;19920;-75
2022/08/04 00:27:02;;;;;;;;;;;;;;;;;;1033686;28;20056;-75
2022/08/04 00:27:32;;;;;;;;;;;;;;;;;;1037679;28;19921;-75
2022/08/04 00:28:03;;;;;;;;;;;;;;;;;;1035841;28;20362;-75
2022/08/04 00:28:33;;;;;;;;;;;;;;;;;;1035716;28;20013;-75
2022/08/04 00:29:03;;;;;;;;;;;;;;;;;;1035963;28;19921;-75
2022/08/04 00:29:33;;;;;;;;;;;;;;;;;;1035877;28;20008;-75
2022/08/04 00:30:04;;;;;;;;;;;;;;;;;;1035798;28;20066;-75
2022/08/04 00:30:34;;;;;;;;;;;;;;;;;;1035788;28;19920;-75
2022/08/04 00:31:04;;;;;;;;;;;;;;;;;;1035845;28;19924;-75
2022/08/04 00:31:35;;;;;;;;;;;;;;;;;;1035807;28;19927;-74
2022/08/04 00:32:05;;;;;;;;;;;;;;;;;;1036201;28;19964;-74
2022/08/04 00:32:35;;;;;;;;;;;;;;;;;;1036266;28;20004;-75
2022/08/04 00:33:06;;;;;;;;;;;;;;;;;;1037121;28;19941;-75
2022/08/04 00:33:36;;;;;;;;;;;;;;;;;;1037068;28;19913;-75
2022/08/04 00:34:06;;;;;;;;;;;;;;;;;;1037001;28;20008;-75
2022/08/04 00:34:36;;;;;;;;;;;;;;;;;;1036476;28;20292;-75
2022/08/04 00:35:07;;;;;;;;;;;;;;;;;;1036789;28;19919;-75
2022/08/04 00:35:38;;;;;;;;;;;;;;;;;;1036732;28;20294;-75
2022/08/04 00:36:09;;;;;;;;;;;;;;;;;;1036544;28;19953;-76
2022/08/04 00:36:39;;;;;;;;;;;;;;;;;;1036571;28;19913;-75
2022/08/04 00:37:09;;;;;;;;;;;;;;;;;;1036596;28;19984;-76
2022/08/04 00:37:39;;;;;;;;;;;;;;;;;;1036663;28;19920;-74
2022/08/04 00:38:10;;;;;;;;;;;;;;;;;;1036660;28;19920;-76
2022/08/04 00:38:40;;;;;;;;;;;;;;;;;;1036611;28;19921;-76
2022/08/04 00:39:10;;;;;;;;;;;;;;;;;;1037096;28;20366;-76
2022/08/04 00:39:41;;;;;;;;;;;;;;;;;;1036542;28;19944;-77
2022/08/04 00:40:11;;;;;;;;;;;;;;;;;;1036641;28;19913;-77
2022/08/04 00:40:41;;;;;;;;;;;;;;;;;;1036578;28;19921;-76
2022/08/04 00:41:11;;;;;;;;;;;;;;;;;;1036620;28;20448;-76
2022/08/04 00:41:42;;;;;;;;;;;;;;;;;;1036504;28;19919;-76
2022/08/04 00:42:12;;;;;;;;;;;;;;;;;;1035640;28;19913;-77
2022/08/04 00:42:42;;;;;;;;;;;;;;;;;;1036557;28;20018;-77
2022/08/04 00:43:13;;;;;;;;;;;;;;;;;;1036850;28;19913;-74
2022/08/04 00:43:43;;;;;;;;;;;;;;;;;;1036840;28;19914;-76
2022/08/04 00:44:13;;;;;;;;;;;;;;;;;;1036882;28;19913;-76
2022/08/04 00:44:43;;;;;;;;;;;;;;;;;;1037117;28;19937;-77
2022/08/04 00:45:14;;;;;;;;;;;;;;;;;;1036651;28;20285;-76
2022/08/04 00:45:44;;;;;;;;;;;;;;;;;;1036621;28;19913;-77
2022/08/04 00:46:14;;;;;;;;;;;;;;;;;;1037203;28;19920;-76
2022/08/04 00:46:45;;;;;;;;;;;;;;;;;;1036610;28;20012;-76
2022/08/04 00:47:15;;;;;;;;;;;;;;;;;;1037076;28;19921;-77
2022/08/04 00:47:45;;;;;;;;;;;;;;;;;;1036475;28;19917;-77
2022/08/04 00:48:15;;;;;;;;;;;;;;;;;;1036560;28;19917;-76
2022/08/04 00:48:46;;;;;;;;;;;;;;;;;;1036758;28;20403;-76
2022/08/04 00:49:16;;;;;;;;;;;;;;;;;;1036751;28;19913;-76
2022/08/04 00:49:46;;;;;;;;;;;;;;;;;;1036746;28;19924;-77
2022/08/04 00:50:16;;;;;;;;;;;;;;;;;;1037008;28;20369;-77
2022/08/04 00:50:47;;;;;;;;;;;;;;;;;;1036888;28;19917;-76
2022/08/04 00:51:17;;;;;;;;;;;;;;;;;;1036985;28;20004;-76
2022/08/04 00:51:47;;;;;;;;;;;;;;;;;;1036888;28;19914;-77
2022/08/04 00:52:18;;;;;;;;;;;;;;;;;;1036899;28;20365;-76
2022/08/04 00:52:48;;;;;;;;;;;;;;;;;;1036874;28;20392;-76
2022/08/04 00:53:18;;;;;;;;;;;;;;;;;;1037008;28;19921;-76
2022/08/04 00:53:49;;;;;;;;;;;;;;;;;;1036802;28;20012;-76
2022/08/04 00:54:19;;;;;;;;;;;;;;;;;;1037441;28;20254;-77
2022/08/04 00:54:49;;;;;;;;;;;;;;;;;;1036907;28;20011;-76
2022/08/04 00:55:19;;;;;;;;;;;;;;;;;;1037103;28;19967;-76
2022/08/04 00:55:50;;;;;;;;;;;;;;;;;;1036420;28;20313;-76
2022/08/04 00:56:20;;;;;;;;;;;;;;;;;;1036546;28;19913;-77
2022/08/04 00:56:50;;;;;;;;;;;;;;;;;;1036584;28;19910;-76
2022/08/04 00:57:21;;;;;;;;;;;;;;;;;;1036613;28;19942;-76
2022/08/04 00:57:51;;;;;;;;;;;;;;;;;;1036573;28;19976;-76
2022/08/04 00:58:21;;;;;;;;;;;;;;;;;;1036716;28;19921;-76
2022/08/04 00:58:52;;;;;;;;;;;;;;;;;;1036574;28;20437;-76
2022/08/04 00:59:22;;;;;;;;;;;;;;;;;;1038982;28;19967;-76
2022/08/04 00:59:52;;;;;;;;;;;;;;;;;;1038691;28;19914;-76
2022/08/04 01:00:22;;;;;;;;;;;;;;;;;;1034555;28;20370;-76
2022/08/04 01:00:53;;;;;;;;;;;;;;;;;;1034637;28;19913;-77
2022/08/04 01:01:23;;;;;;;;;;;;;;;;;;1033357;28;19924;-76
2022/08/04 01:01:53;;;;;;;;;;;;;;;;;;1032486;28;19910;-76
2022/08/04 01:02:24;;;;;;;;;;;;;;;;;;1036557;28;20429;-77
2022/08/04 01:02:54;;;;;;;;;;;;;;;;;;1036654;28;20439;-76
2022/08/04 01:03:24;;;;;;;;;;;;;;;;;;1036479;28;19921;-76
2022/08/04 01:03:55;;;;;;;;;;;;;;;;;;1036665;28;20371;-77
2022/08/04 01:04:25;;;;;;;;;;;;;;;;;;1036385;28;19918;-76
2022/08/04 01:04:55;;;;;;;;;;;;;;;;;;1036649;28;19918;-76
2022/08/04 01:05:26;;;;;;;;;;;;;;;;;;1036711;28;19913;-77
2022/08/04 01:05:56;;;;;;;;;;;;;;;;;;1035715;28;20416;-76
2022/08/04 01:06:26;;;;;;;;;;;;;;;;;;1036367;28;19920;-76
2022/08/04 01:06:56;;;;;;;;;;;;;;;;;;1036777;28;20365;-76
2022/08/04 01:07:27;;;;;;;;;;;;;;;;;;1038388;28;19913;-77
2022/08/04 01:07:57;;;;;;;;;;;;;;;;;;1038526;28;19921;-76
2022/08/04 01:08:27;;;;;;;;;;;;;;;;;;1038045;28;19936;-77
2022/08/04 01:08:58;;;;;;;;;;;;;;;;;;1038525;28;19913;-77
2022/08/04 01:09:28;;;;;;;;;;;;;;;;;;1036868;28;19913;-77
2022/08/04 01:09:58;;;;;;;;;;;;;;;;;;1036510;28;19921;-76
2022/08/04 01:10:28;;;;;;;;;;;;;;;;;;1036522;28;19913;-76
2022/08/04 01:10:59;;;;;;;;;;;;;;;;;;1037032;28;19920;-76
2022/08/04 01:11:29;;;;;;;;;;;;;;;;;;1036400;28;19913;-76
2022/08/04 01:11:59;;;;;;;;;;;;;;;;;;1036833;28;19914;-76
2022/08/04 01:12:30;;;;;;;;;;;;;;;;;;1036624;28;19952;-76
2022/08/04 01:13:00;;;;;;;;;;;;;;;;;;1036691;28;19964;-76
2022/08/04 01:13:30;;;;;;;;;;;;;;;;;;1036449;28;20004;-77
2022/08/04 01:14:00;;;;;;;;;;;;;;;;;;1036537;28;19936;-77
2022/08/04 01:14:31;;;;;;;;;;;;;;;;;;1036310;28;20373;-77
2022/08/04 01:15:01;;;;;;;;;;;;;;;;;;1036597;28;19960;-77
2022/08/04 01:15:31;;;;;;;;;;;;;;;;;;1034590;28;19922;-76
2022/08/04 01:16:02;;;;;;;;;;;;;;;;;;1034757;28;19933;-76
2022/08/04 01:16:32;;;;;;;;;;;;;;;;;;1034233;28;20378;-76
2022/08/04 01:17:02;;;;;;;;;;;;;;;;;;1038403;28;20000;-77
2022/08/04 01:17:32;;;;;;;;;;;;;;;;;;1036862;28;20348;-77
2022/08/04 01:18:03;;;;;;;;;;;;;;;;;;1036827;28;20004;-76
2022/08/04 01:18:34;;;;;;;;;;;;;;;;;;1036412;28;19913;-76
2022/08/04 01:19:04;;;;;;;;;;;;;;;;;;1037017;28;19913;-74
2022/08/04 01:19:34;;;;;;;;;;;;;;;;;;1036380;28;19918;-76
2022/08/04 01:20:06;;;;;;;;;;;;;;;;;;1036525;28;20041;-76
2022/08/04 01:20:36;;;;;;;;;;;;;;;;;;1036347;28;19921;-76
2022/08/04 01:21:07;;;;;;;;;;;;;;;;;;1036553;28;19914;-76
2022/08/04 01:21:37;;;;;;;;;;;;;;;;;;1034587;28;19921;-77
2022/08/04 01:22:07;;;;;;;;;;;;;;;;;;1034627;28;19920;-77
2022/08/04 01:22:38;;;;;;;;;;;;;;;;;;1034233;28;19914;-76
2022/08/04 01:23:08;;;;;;;;;;;;;;;;;;1038403;28;20075;-77
2022/08/04 01:23:38;;;;;;;;;;;;;;;;;;1036830;28;20281;-77
2022/08/04 01:24:09;;;;;;;;;;;;;;;;;;1036785;28;19925;-76
2022/08/04 01:24:39;;;;;;;;;;;;;;;;;;1036308;28;20012;-76
2022/08/04 01:25:09;;;;;;;;;;;;;;;;;;1036651;28;19920;-76
2022/08/04 01:25:39;;;;;;;;;;;;;;;;;;1036434;28;20396;-76
2022/08/04 01:26:10;;;;;;;;;;;;;;;;;;1036513;28;19918;-76
2022/08/04 01:26:40;;;;;;;;;;;;;;;;;;1036712;28;19996;-76
2022/08/04 01:27:10;;;;;;;;;;;;;;;;;;1036439;28;19913;-76
2022/08/04 01:27:40;;;;;;;;;;;;;;;;;;1036437;28;19964;-76
2022/08/04 01:28:11;;;;;;;;;;;;;;;;;;1034757;28;20263;-76
2022/08/04 01:28:41;;;;;;;;;;;;;;;;;;1034618;28;19996;-76
2022/08/04 01:29:11;;;;;;;;;;;;;;;;;;1034638;28;19921;-76
2022/08/04 01:29:42;;;;;;;;;;;;;;;;;;1032255;28;19913;-76
2022/08/04 01:30:12;;;;;;;;;;;;;;;;;;1036357;28;20428;-76
2022/08/04 01:30:42;;;;;;;;;;;;;;;;;;1036557;28;19936;-76
2022/08/04 01:31:12;;;;;;;;;;;;;;;;;;1037116;28;20004;-75
2022/08/04 01:31:43;;;;;;;;;;;;;;;;;;1036730;28;19913;-76
2022/08/04 01:32:13;;;;;;;;;;;;;;;;;;1036792;28;19914;-76
2022/08/04 01:32:43;;;;;;;;;;;;;;;;;;1036793;28;19913;-77
2022/08/04 01:33:13;;;;;;;;;;;;;;;;;;1036874;28;19996;-77
2022/08/04 01:33:44;;;;;;;;;;;;;;;;;;1036385;28;19980;-76
2022/08/04 01:34:14;;;;;;;;;;;;;;;;;;1036406;28;19913;-76
2022/08/04 01:34:44;;;;;;;;;;;;;;;;;;1036477;28;19945;-76
2022/08/04 01:35:15;;;;;;;;;;;;;;;;;;1036495;28;19921;-76
2022/08/04 01:35:45;;;;;;;;;;;;;;;;;;1036382;28;20028;-76
2022/08/04 01:36:15;;;;;;;;;;;;;;;;;;1036421;28;19940;-76
2022/08/04 01:36:46;;;;;;;;;;;;;;;;;;1036763;28;19945;-76
2022/08/04 01:37:19;;;;;;;;;;;;;;;;;;1036930;28;19937;-77
2022/08/04 01:37:49;;;;;;;;;;;;;;;;;;1036633;28;19913;-77
2022/08/04 01:38:20;;;;;;;;;;;;;;;;;;1035696;28;20000;-76
2022/08/04 01:38:50;;;;;;;;;;;;;;;;;;1036631;28;20285;-76
2022/08/04 01:40:09;;;;;;;;;;;;;;;;;;1037053;28;20365;-76
2022/08/04 01:40:39;;;;;;;;;;;;;;;;;;1036524;28;19984;-77
2022/08/04 01:41:10;;;;;;;;;;;;;;;;;;1037314;28;19913;-77
2022/08/04 01:41:40;;;;;;;;;;;;;;;;;;1036230;28;20377;-76
2022/08/04 01:42:10;;;;;;;;;;;;;;;;;;1036947;28;19913;-76
2022/08/04 01:42:40;;;;;;;;;;;;;;;;;;1036660;28;19963;-76
2022/08/04 01:43:11;;;;;;;;;;;;;;;;;;1036985;28;19917;-76
2022/08/04 01:43:41;;;;;;;;;;;;;;;;;;1037461;28;20343;-76
2022/08/04 01:44:11;;;;;;;;;;;;;;;;;;1035913;28;19914;-77
2022/08/04 01:44:42;;;;;;;;;;;;;;;;;;1030559;28;20359;-76
2022/08/04 01:45:12;;;;;;;;;;;;;;;;;;1040491;28;19913;-75
2022/08/04 01:45:42;;;;;;;;;;;;;;;;;;1040460;28;20593;-76
2022/08/04 01:46:12;;;;;;;;;;;;;;;;;;1040534;28;19953;-76
2022/08/04 01:46:43;;;;;;;;;;;;;;;;;;1040497;28;19913;-75
2022/08/04 01:47:13;;;;;;;;;;;;;;;;;;1040676;28;20383;-75
2022/08/04 01:47:43;;;;;;;;;;;;;;;;;;1036275;28;19913;-76
2022/08/04 01:48:14;;;;;;;;;;;;;;;;;;1040069;28;19921;-76
2022/08/04 01:48:44;;;;;;;;;;;;;;;;;;1040269;28;20372;-76
2022/08/04 01:49:14;;;;;;;;;;;;;;;;;;1040552;28;19913;-76
2022/08/04 01:49:45;;;;;;;;;;;;;;;;;;1040439;28;19913;-76
2022/08/04 01:50:15;;;;;;;;;;;;;;;;;;1040351;28;19921;-77
2022/08/04 01:50:45;;;;;;;;;;;;;;;;;;1040910;28;20289;-76
2022/08/04 01:51:15;;;;;;;;;;;;;;;;;;1040890;28;19924;-76
2022/08/04 01:51:46;;;;;;;;;;;;;;;;;;1040584;28;19913;-76
2022/08/04 01:52:16;;;;;;;;;;;;;;;;;;1040516;28;20575;-75
2022/08/04 01:52:46;;;;;;;;;;;;;;;;;;1040556;28;19917;-75
2022/08/04 01:53:16;;;;;;;;;;;;;;;;;;1040476;28;19939;-76
2022/08/04 01:53:47;;;;;;;;;;;;;;;;;;1040209;28;19919;-76
2022/08/04 01:54:17;;;;;;;;;;;;;;;;;;1040167;28;20281;-76
2022/08/04 01:54:47;;;;;;;;;;;;;;;;;;1040344;28;19913;-76
2022/08/04 01:55:18;;;;;;;;;;;;;;;;;;1038620;28;20036;-76
2022/08/04 01:55:48;;;;;;;;;;;;;;;;;;1038200;28;19913;-76
2022/08/04 01:56:18;;;;;;;;;;;;;;;;;;1037491;28;20326;-76
2022/08/04 01:56:49;;;;;;;;;;;;;;;;;;1042738;28;19916;-76
2022/08/04 01:57:19;;;;;;;;;;;;;;;;;;1040910;28;19960;-76
2022/08/04 01:57:49;;;;;;;;;;;;;;;;;;1040640;28;20365;-76
2022/08/04 01:58:19;;;;;;;;;;;;;;;;;;1041038;28;20443;-76
2022/08/04 01:58:50;;;;;;;;;;;;;;;;;;1040379;28;20400;-75
2022/08/04 01:59:20;;;;;;;;;;;;;;;;;;1040568;28;19923;-76
2022/08/04 01:59:50;;;;;;;;;;;;;;;;;;1040219;28;20313;-76
2022/08/04 02:00:21;;;;;;;;;;;;;;;;;;1039172;28;20032;-77
2022/08/04 02:00:51;;;;;;;;;;;;;;;;;;1040305;28;19939;-76
2022/08/04 02:01:21;;;;;;;;;;;;;;;;;;1040488;28;19920;-76
2022/08/04 02:01:51;;;;;;;;;;;;;;;;;;1040129;28;19945;-76
2022/08/04 02:02:23;;;;;;;;;;;;;;;;;;1040316;28;19913;-76
2022/08/04 02:02:53;;;;;;;;;;;;;;;;;;1036397;28;19919;-76
2022/08/04 02:03:23;;;;;;;;;;;;;;;;;;1036405;28;20285;-76
2022/08/04 02:03:54;;;;;;;;;;;;;;;;;;1036347;28;19945;-75
2022/08/04 02:04:24;;;;;;;;;;;;;;;;;;1036272;28;19960;-75
2022/08/04 02:04:54;;;;;;;;;;;;;;;;;;1040042;28;19925;-75
2022/08/04 02:05:24;;;;;;;;;;;;;;;;;;1036401;28;20360;-75
2022/08/04 02:05:55;;;;;;;;;;;;;;;;;;1040486;28;19920;-76
2022/08/04 02:06:25;;;;;;;;;;;;;;;;;;1039831;28;20011;-76
2022/08/04 02:06:55;;;;;;;;;;;;;;;;;;1040533;28;19918;-75
2022/08/04 02:07:26;;;;;;;;;;;;;;;;;;1039697;28;19913;-75
2022/08/04 02:07:56;;;;;;;;;;;;;;;;;;1040042;28;19914;-75
2022/08/04 02:08:26;;;;;;;;;;;;;;;;;;1039944;28;19917;-75
2022/08/04 02:08:57;;;;;;;;;;;;;;;;;;1040507;28;19944;-75
2022/08/04 02:09:27;;;;;;;;;;;;;;;;;;1035550;28;19949;-75
2022/08/04 02:09:57;;;;;;;;;;;;;;;;;;1036294;28;19913;-76
2022/08/04 02:10:27;;;;;;;;;;;;;;;;;;1039541;28;19971;-76
2022/08/04 02:10:58;;;;;;;;;;;;;;;;;;1040201;28;19913;-76
2022/08/04 02:11:28;;;;;;;;;;;;;;;;;;1040173;28;19953;-76
2022/08/04 02:11:58;;;;;;;;;;;;;;;;;;1036268;28;19935;-76
2022/08/04 02:12:29;;;;;;;;;;;;;;;;;;1036252;28;19913;-76
2022/08/04 02:12:59;;;;;;;;;;;;;;;;;;1036776;28;19914;-76
2022/08/04 02:13:29;;;;;;;;;;;;;;;;;;1040838;28;19913;-76
2022/08/04 02:13:59;;;;;;;;;;;;;;;;;;1040752;28;20424;-76
2022/08/04 02:14:44;;;;;;;;;;;;;;;;;;1040533;28;19925;-76
2022/08/04 02:15:14;;;;;;;;;;;;;;;;;;1040201;28;19971;-76
2022/08/04 02:15:45;;;;;;;;;;;;;;;;;;1039814;28;19928;-76
2022/08/04 02:16:15;;;;;;;;;;;;;;;;;;1040306;28;19917;-76
2022/08/04 02:16:45;;;;;;;;;;;;;;;;;;1040366;28;19917;-76
2022/08/04 02:17:15;;;;;;;;;;;;;;;;;;1040294;28;19917;-76
2022/08/04 02:17:46;;;;;;;;;;;;;;;;;;1040366;28;19966;-76
2022/08/04 02:18:16;;;;;;;;;;;;;;;;;;1040259;28;20414;-76
2022/08/04 02:18:46;;;;;;;;;;;;;;;;;;1040258;28;19961;-75
2022/08/04 02:19:17;;;;;;;;;;;;;;;;;;1040463;28;20407;-75
2022/08/04 02:19:47;;;;;;;;;;;;;;;;;;1040261;28;19925;-76
2022/08/04 02:20:17;;;;;;;;;;;;;;;;;;1036769;28;20419;-76
2022/08/04 02:20:48;;;;;;;;;;;;;;;;;;1040282;28;19924;-76
2022/08/04 02:21:18;;;;;;;;;;;;;;;;;;1040419;28;19913;-76
2022/08/04 02:21:48;;;;;;;;;;;;;;;;;;1040307;28;19964;-75
2022/08/04 02:22:18;;;;;;;;;;;;;;;;;;1044479;28;19948;-76
2022/08/04 02:22:49;;;;;;;;;;;;;;;;;;1040120;28;20030;-76
2022/08/04 02:23:19;;;;;;;;;;;;;;;;;;1040294;28;19913;-76
2022/08/04 02:23:49;;;;;;;;;;;;;;;;;;1039703;28;20392;-76
2022/08/04 02:24:19;;;;;;;;;;;;;;;;;;1039907;28;19920;-77
2022/08/04 02:24:50;;;;;;;;;;;;;;;;;;1040522;28;20315;-76
2022/08/04 02:25:20;;;;;;;;;;;;;;;;;;1039369;28;19917;-76
2022/08/04 02:25:50;;;;;;;;;;;;;;;;;;1040333;28;19913;-76
2022/08/04 02:26:21;;;;;;;;;;;;;;;;;;1040069;28;19913;-76
2022/08/04 02:26:51;;;;;;;;;;;;;;;;;;1040110;28;19942;-75
2022/08/04 02:27:21;;;;;;;;;;;;;;;;;;1040320;28;19967;-75
2022/08/04 02:27:51;;;;;;;;;;;;;;;;;;1039863;28;20377;-75
2022/08/04 02:28:22;;;;;;;;;;;;;;;;;;1040071;28;19957;-76
2022/08/04 02:28:52;;;;;;;;;;;;;;;;;;1037542;28;19994;-75
2022/08/04 02:29:22;;;;;;;;;;;;;;;;;;1037814;28;19924;-76
2022/08/04 02:29:53;;;;;;;;;;;;;;;;;;1037742;28;20012;-76
2022/08/04 02:30:23;;;;;;;;;;;;;;;;;;1039079;28;19913;-76
2022/08/04 02:30:53;;;;;;;;;;;;;;;;;;1040171;28;20326;-76
2022/08/04 02:31:24;;;;;;;;;;;;;;;;;;1036011;28;20356;-76
2022/08/04 02:31:54;;;;;;;;;;;;;;;;;;1036055;28;20778;-76
2022/08/04 02:32:24;;;;;;;;;;;;;;;;;;1035906;28;20009;-76
2022/08/04 02:32:54;;;;;;;;;;;;;;;;;;1040277;28;20347;-76
2022/08/04 02:33:25;;;;;;;;;;;;;;;;;;1040541;28;19917;-76
2022/08/04 02:33:55;;;;;;;;;;;;;;;;;;1040573;28;19936;-76
2022/08/04 02:34:25;;;;;;;;;;;;;;;;;;1040366;28;19917;-75
2022/08/04 02:34:56;;;;;;;;;;;;;;;;;;1040488;28;20038;-75
2022/08/04 02:35:26;;;;;;;;;;;;;;;;;;1040518;28;19913;-76
2022/08/04 02:35:57;;;;;;;;;;;;;;;;;;1040348;28;19951;-76
2022/08/04 02:36:27;;;;;;;;;;;;;;;;;;1039764;28;19942;-76
2022/08/04 02:36:57;;;;;;;;;;;;;;;;;;1040267;28;19920;-76
2022/08/04 02:37:28;;;;;;;;;;;;;;;;;;1040143;28;20008;-76
2022/08/04 02:37:58;;;;;;;;;;;;;;;;;;1040222;28;19952;-76
2022/08/04 02:38:28;;;;;;;;;;;;;;;;;;1040324;28;20008;-76
2022/08/04 02:38:59;;;;;;;;;;;;;;;;;;1040211;28;19917;-76
2022/08/04 02:39:29;;;;;;;;;;;;;;;;;;1038688;28;19920;-76
2022/08/04 02:39:59;;;;;;;;;;;;;;;;;;1039799;28;20000;-76
2022/08/04 02:40:30;;;;;;;;;;;;;;;;;;1039558;28;19914;-76
2022/08/04 02:41:00;;;;;;;;;;;;;;;;;;1040597;28;19991;-76
2022/08/04 02:41:31;;;;;;;;;;;;;;;;;;1040371;28;19914;-75
2022/08/04 02:42:01;;;;;;;;;;;;;;;;;;1040523;28;19913;-76
2022/08/04 02:42:31;;;;;;;;;;;;;;;;;;1039918;28;20028;-75
2022/08/04 02:43:01;;;;;;;;;;;;;;;;;;1040690;28;20392;-75
2022/08/04 02:43:32;;;;;;;;;;;;;;;;;;1039704;28;20099;-75
2022/08/04 02:44:02;;;;;;;;;;;;;;;;;;1040063;28;19913;-75
2022/08/04 02:44:32;;;;;;;;;;;;;;;;;;1039348;28;19920;-75
2022/08/04 02:45:03;;;;;;;;;;;;;;;;;;1036658;28;20445;-76
2022/08/04 02:45:33;;;;;;;;;;;;;;;;;;1040966;28;19924;-76
2022/08/04 02:46:03;;;;;;;;;;;;;;;;;;1040076;28;19918;-76
2022/08/04 02:46:34;;;;;;;;;;;;;;;;;;1039934;28;19917;-76
2022/08/04 02:47:04;;;;;;;;;;;;;;;;;;1045156;28;19920;-76
2022/08/04 02:47:34;;;;;;;;;;;;;;;;;;1039797;28;20011;-76
2022/08/04 02:48:05;;;;;;;;;;;;;;;;;;1040166;28;19913;-76
2022/08/04 02:48:35;;;;;;;;;;;;;;;;;;1039867;28;19967;-76
2022/08/04 02:49:05;;;;;;;;;;;;;;;;;;1040232;28;20569;-76
2022/08/04 02:49:35;;;;;;;;;;;;;;;;;;1040106;28;19924;-76
2022/08/04 02:50:06;;;;;;;;;;;;;;;;;;1040065;28;19917;-76
2022/08/04 02:50:36;;;;;;;;;;;;;;;;;;1039665;28;20008;-76
2022/08/04 02:51:06;;;;;;;;;;;;;;;;;;1040170;28;20331;-76
2022/08/04 02:51:37;;;;;;;;;;;;;;;;;;1039993;28;19917;-75
2022/08/04 02:52:07;;;;;;;;;;;;;;;;;;1040213;28;19913;-76
2022/08/04 02:52:37;;;;;;;;;;;;;;;;;;1038850;28;19913;-75
2022/08/04 02:53:09;;;;;;;;;;;;;;;;;;1040520;28;19913;-76
2022/08/04 02:53:39;;;;;;;;;;;;;;;;;;1039745;28;19920;-76
2022/08/04 02:54:09;;;;;;;;;;;;;;;;;;1039391;28;19987;-76
2022/08/04 02:54:40;;;;;;;;;;;;;;;;;;1039741;28;19948;-76
2022/08/04 02:55:11;;;;;;;;;;;;;;;;;;1039364;28;19913;-76
2022/08/04 02:55:41;;;;;;;;;;;;;;;;;;1040128;28;19917;-75
2022/08/04 02:56:11;;;;;;;;;;;;;;;;;;1040443;28;19917;-77
2022/08/04 02:56:41;;;;;;;;;;;;;;;;;;1039836;28;20062;-76
2022/08/04 02:57:12;;;;;;;;;;;;;;;;;;1039505;28;19916;-76
2022/08/04 02:57:42;;;;;;;;;;;;;;;;;;1039767;28;19913;-75
2022/08/04 02:58:12;;;;;;;;;;;;;;;;;;1039935;28;20340;-75
2022/08/04 02:58:43;;;;;;;;;;;;;;;;;;1040199;28;19913;-75
2022/08/04 02:59:13;;;;;;;;;;;;;;;;;;1040352;28;19913;-75
2022/08/04 02:59:43;;;;;;;;;;;;;;;;;;1039989;28;20310;-75
2022/08/04 03:00:14;;;;;;;;;;;;;;;;;;1039627;28;19917;-75
2022/08/04 03:00:44;;;;;;;;;;;;;;;;;;1039815;28;20385;-76
2022/08/04 03:01:14;;;;;;;;;;;;;;;;;;1040083;28;19914;-76
2022/08/04 03:01:45;;;;;;;;;;;;;;;;;;1041771;28;19956;-76
2022/08/04 03:02:15;;;;;;;;;;;;;;;;;;1039857;28;20532;-76
2022/08/04 03:02:45;;;;;;;;;;;;;;;;;;1039960;28;20722;-76
2022/08/04 03:03:16;;;;;;;;;;;;;;;;;;1039586;28;19917;-76
2022/08/04 03:03:46;;;;;;;;;;;;;;;;;;1038829;28;19917;-76
2022/08/04 03:04:16;;;;;;;;;;;;;;;;;;1040106;28;19913;-76
2022/08/04 03:04:47;;;;;;;;;;;;;;;;;;1039784;28;19921;-77
2022/08/04 03:05:17;;;;;;;;;;;;;;;;;;1039626;28;20589;-76
2022/08/04 03:05:47;;;;;;;;;;;;;;;;;;1040195;28;19920;-76
2022/08/04 03:06:17;;;;;;;;;;;;;;;;;;1040737;28;20338;-75
2022/08/04 03:06:48;;;;;;;;;;;;;;;;;;1041038;28;19913;-76
2022/08/04 03:07:18;;;;;;;;;;;;;;;;;;1040727;28;19979;-77
2022/08/04 03:07:48;;;;;;;;;;;;;;;;;;1040638;28;19917;-76
2022/08/04 03:08:18;;;;;;;;;;;;;;;;;;1039916;28;19948;-76
2022/08/04 03:08:49;;;;;;;;;;;;;;;;;;1040361;28;19924;-77
2022/08/04 03:09:19;;;;;;;;;;;;;;;;;;1039954;28;20305;-76
2022/08/04 03:09:49;;;;;;;;;;;;;;;;;;1039955;28;20052;-76
2022/08/04 03:10:20;;;;;;;;;;;;;;;;;;1040425;28;20031;-77
2022/08/04 03:10:50;;;;;;;;;;;;;;;;;;1039813;28;20351;-76
2022/08/04 03:11:20;;;;;;;;;;;;;;;;;;1040366;28;19917;-76
2022/08/04 03:11:51;;;;;;;;;;;;;;;;;;1040169;28;19913;-77
2022/08/04 03:12:21;;;;;;;;;;;;;;;;;;1040527;28;19936;-77
2022/08/04 03:12:51;;;;;;;;;;;;;;;;;;1039568;28;19913;-77
2022/08/04 03:13:21;;;;;;;;;;;;;;;;;;1040690;28;19998;-76
2022/08/04 03:13:52;;;;;;;;;;;;;;;;;;1040199;28;19913;-76
2022/08/04 03:14:22;;;;;;;;;;;;;;;;;;1039644;28;20367;-76
2022/08/04 03:14:53;;;;;;;;;;;;;;;;;;1038596;28;19942;-76
2022/08/04 03:15:23;;;;;;;;;;;;;;;;;;1037051;28;20468;-77
2022/08/04 03:15:53;;;;;;;;;;;;;;;;;;1036897;28;19925;-75
2022/08/04 03:16:24;;;;;;;;;;;;;;;;;;1039651;28;20389;-76
2022/08/04 03:16:54;;;;;;;;;;;;;;;;;;1041299;28;20435;-76
2022/08/04 03:17:24;;;;;;;;;;;;;;;;;;1039894;28;19952;-76
2022/08/04 03:17:55;;;;;;;;;;;;;;;;;;1040495;28;19919;-76
2022/08/04 03:18:25;;;;;;;;;;;;;;;;;;1039609;28;20377;-77
2022/08/04 03:18:55;;;;;;;;;;;;;;;;;;1040248;28;19917;-76
2022/08/04 03:19:25;;;;;;;;;;;;;;;;;;1040822;28;19921;-77
2022/08/04 03:19:56;;;;;;;;;;;;;;;;;;1039900;28;19913;-77
2022/08/04 03:20:26;;;;;;;;;;;;;;;;;;1039718;28;19920;-77
2022/08/04 03:20:56;;;;;;;;;;;;;;;;;;1040056;28;19920;-74
2022/08/04 03:21:26;;;;;;;;;;;;;;;;;;1039920;28;20060;-74
2022/08/04 03:21:57;;;;;;;;;;;;;;;;;;1039101;28;19971;-75
2022/08/04 03:22:27;;;;;;;;;;;;;;;;;;1039381;28;19920;-74
2022/08/04 03:22:57;;;;;;;;;;;;;;;;;;1039985;28;19943;-74
2022/08/04 03:23:28;;;;;;;;;;;;;;;;;;1040018;28;20020;-74
2022/08/04 03:23:58;;;;;;;;;;;;;;;;;;1039878;28;19917;-75
2022/08/04 03:24:28;;;;;;;;;;;;;;;;;;1039610;28;19971;-76
2022/08/04 03:24:58;;;;;;;;;;;;;;;;;;1039360;28;20414;-75
2022/08/04 03:25:29;;;;;;;;;;;;;;;;;;1040010;28;19913;-76
2022/08/04 03:25:59;;;;;;;;;;;;;;;;;;1039390;28;19912;-76
2022/08/04 03:26:29;;;;;;;;;;;;;;;;;;1039965;28;19913;-76
2022/08/04 03:27:00;;;;;;;;;;;;;;;;;;1039603;28;19999;-75
2022/08/04 03:27:30;;;;;;;;;;;;;;;;;;1040231;28;19913;-75
2022/08/04 03:28:00;;;;;;;;;;;;;;;;;;1040396;28;20408;-75